Terminal Aerodrome Forecast
Issued by NWS Cleveland, OH

Home | Current Version | Previous Version | Text Only | Print | Product List | Glossary Off
Versions: 1 2 3 4 5 6 7 8 9 10 11 12 13 14 15 16 17

000
FTUS41 KCLE 300520
TAFERI
TAF
KERI 300520Z 3006/0106 13008KT P6SM -SHRA OVC050
     FM300900 18008KT P6SM OVC015
     FM301500 22010KT P6SM OVC025
     FM302000 22010KT P6SM -SHRA OVC035
      TEMPO 3020/3024 4SM -TSRA OVC035CB
     FM010100 20005KT P6SM BKN100
     FM010500 20007KT P6SM OVC050=

USA.gov is the U.S. government's official web portal to all federal, state and local government web resources and services.